sensor_id;sensor_type;location;lat;lon;timestamp;pressure;altitude;pressure_sealevel;temperature;humidity
45129;BME280;35512;56.312;101.728;2023-04-28T00:00:14;96124.06;;;1.15;83.60
45129;BME280;35512;56.312;101.728;2023-04-28T00:02:43;96123.47;;;1.27;84.18
45129;BME280;35512;56.312;101.728;2023-04-28T00:05:14;96117.09;;;1.37;84.34
45129;BME280;35512;56.312;101.728;2023-04-28T00:07:43;96118.34;;;1.48;84.17
45129;BME280;35512;56.312;101.728;2023-04-28T00:10:12;96119.00;;;1.54;83.99
45129;BME280;35512;56.312;101.728;2023-04-28T00:12:41;96105.84;;;1.57;84.31
45129;BME280;35512;56.312;101.728;2023-04-28T00:15:10;96104.59;;;1.55;84.46
45129;BME280;35512;56.312;101.728;2023-04-28T00:17:40;96101.94;;;1.63;84.87
45129;BME280;35512;56.312;101.728;2023-04-28T00:20:10;96104.28;;;1.82;85.03
45129;BME280;35512;56.312;101.728;2023-04-28T00:22:39;96105.41;;;1.90;85.10
45129;BME280;35512;56.312;101.728;2023-04-28T00:25:08;96097.09;;;2.00;84.56
45129;BME280;35512;56.312;101.728;2023-04-28T00:27:37;96085.78;;;2.12;85.22
45129;BME280;35512;56.312;101.728;2023-04-28T00:30:07;96079.81;;;2.33;85.63
45129;BME280;35512;56.312;101.728;2023-04-28T00:32:36;96080.56;;;2.42;85.44
45129;BME280;35512;56.312;101.728;2023-04-28T00:35:05;96090.59;;;2.54;85.21
45129;BME280;35512;56.312;101.728;2023-04-28T00:37:36;96068.44;;;2.62;85.33
45129;BME280;35512;56.312;101.728;2023-04-28T00:40:05;96076.59;;;2.66;85.02
45129;BME280;35512;56.312;101.728;2023-04-28T00:42:34;96074.22;;;2.73;85.44
45129;BME280;35512;56.312;101.728;2023-04-28T00:45:04;96079.44;;;2.61;84.92
45129;BME280;35512;56.312;101.728;2023-04-28T00:47:36;96079.75;;;2.50;84.84
45129;BME280;35512;56.312;101.728;2023-04-28T00:50:06;96070.22;;;2.41;84.64
45129;BME280;35512;56.312;101.728;2023-04-28T00:52:35;96073.41;;;2.25;84.34
45129;BME280;35512;56.312;101.728;2023-04-28T00:55:06;96068.09;;;2.16;84.43
45129;BME280;35512;56.312;101.728;2023-04-28T00:57:36;96057.59;;;2.11;84.45
45129;BME280;35512;56.312;101.728;2023-04-28T01:00:06;96055.59;;;1.99;84.28
45129;BME280;35512;56.312;101.728;2023-04-28T01:02:37;96055.25;;;1.92;84.82
45129;BME280;35512;56.312;101.728;2023-04-28T01:05:08;96060.91;;;1.91;85.03
45129;BME280;35512;56.312;101.728;2023-04-28T01:07:37;96048.53;;;1.95;85.42
45129;BME280;35512;56.312;101.728;2023-04-28T01:10:08;96043.50;;;1.93;85.15
45129;BME280;35512;56.312;101.728;2023-04-28T01:12:37;96044.91;;;1.91;85.08
45129;BME280;35512;56.312;101.728;2023-04-28T01:15:10;96048.19;;;1.96;85.35
45129;BME280;35512;56.312;101.728;2023-04-28T01:17:44;96042.72;;;2.01;85.38
45129;BME280;35512;56.312;101.728;2023-04-28T01:20:14;96034.59;;;1.98;85.25
45129;BME280;35512;56.312;101.728;2023-04-28T01:22:43;96034.88;;;2.05;85.77
45129;BME280;35512;56.312;101.728;2023-04-28T01:25:12;96033.13;;;2.18;85.78
45129;BME280;35512;56.312;101.728;2023-04-28T01:27:41;96035.09;;;2.39;86.20
45129;BME280;35512;56.312;101.728;2023-04-28T01:30:10;96038.84;;;2.46;85.92
45129;BME280;35512;56.312;101.728;2023-04-28T01:32:39;96024.72;;;2.54;85.89
45129;BME280;35512;56.312;101.728;2023-04-28T01:35:08;96033.63;;;2.67;86.18
45129;BME280;35512;56.312;101.728;2023-04-28T01:37:37;96020.38;;;2.80;86.29
45129;BME280;35512;56.312;101.728;2023-04-28T01:40:06;96021.97;;;2.72;85.61
45129;BME280;35512;56.312;101.728;2023-04-28T01:42:36;96017.00;;;2.62;85.78
45129;BME280;35512;56.312;101.728;2023-04-28T01:45:05;96024.69;;;2.63;85.79
45129;BME280;35512;56.312;101.728;2023-04-28T01:47:34;96019.44;;;2.46;84.85
45129;BME280;35512;56.312;101.728;2023-04-28T01:50:04;96010.97;;;2.44;85.13
45129;BME280;35512;56.312;101.728;2023-04-28T01:52:35;96011.66;;;2.23;84.69
45129;BME280;35512;56.312;101.728;2023-04-28T01:55:04;96015.88;;;2.15;85.06
45129;BME280;35512;56.312;101.728;2023-04-28T01:57:38;96003.22;;;2.12;85.84
45129;BME280;35512;56.312;101.728;2023-04-28T02:00:07;96003.56;;;2.02;85.85
45129;BME280;35512;56.312;101.728;2023-04-28T02:02:49;96010.47;;;1.94;85.53
45129;BME280;35512;56.312;101.728;2023-04-28T02:05:18;96003.13;;;1.91;86.08
45129;BME280;35512;56.312;101.728;2023-04-28T02:07:47;96002.31;;;1.91;85.75
45129;BME280;35512;56.312;101.728;2023-04-28T02:10:16;96009.22;;;1.74;85.53
45129;BME280;35512;56.312;101.728;2023-04-28T02:12:47;95999.06;;;1.76;85.93
45129;BME280;35512;56.312;101.728;2023-04-28T02:15:16;95992.31;;;1.70;86.21
45129;BME280;35512;56.312;101.728;2023-04-28T02:17:47;95995.31;;;1.77;86.01
45129;BME280;35512;56.312;101.728;2023-04-28T02:20:16;96002.81;;;1.75;85.95
45129;BME280;35512;56.312;101.728;2023-04-28T02:22:45;95988.88;;;1.69;86.03
45129;BME280;35512;56.312;101.728;2023-04-28T02:25:14;95989.66;;;1.79;86.24
45129;BME280;35512;56.312;101.728;2023-04-28T02:27:42;95981.50;;;1.84;86.35
45129;BME280;35512;56.312;101.728;2023-04-28T02:30:12;95981.97;;;1.86;86.28
45129;BME280;35512;56.312;101.728;2023-04-28T02:32:41;95977.56;;;1.90;86.60
45129;BME280;35512;56.312;101.728;2023-04-28T02:35:10;95975.22;;;1.89;86.61
45129;BME280;35512;56.312;101.728;2023-04-28T02:37:39;95984.34;;;1.79;85.87
45129;BME280;35512;56.312;101.728;2023-04-28T02:40:08;95984.03;;;1.72;86.38
45129;BME280;35512;56.312;101.728;2023-04-28T02:42:37;95983.41;;;1.66;86.58
45129;BME280;35512;56.312;101.728;2023-04-28T02:45:06;95979.81;;;1.62;86.71
45129;BME280;35512;56.312;101.728;2023-04-28T02:47:35;95968.72;;;1.60;87.02
45129;BME280;35512;56.312;101.728;2023-04-28T02:50:05;95972.47;;;1.59;86.72
45129;BME280;35512;56.312;101.728;2023-04-28T02:52:35;95967.00;;;1.46;86.48
45129;BME280;35512;56.312;101.728;2023-04-28T02:55:04;95961.38;;;1.39;86.69
45129;BME280;35512;56.312;101.728;2023-04-28T02:57:34;95972.00;;;1.30;86.53
45129;BME280;35512;56.312;101.728;2023-04-28T03:00:04;95966.22;;;1.28;86.63
45129;BME280;35512;56.312;101.728;2023-04-28T03:02:42;95972.47;;;1.32;87.21
45129;BME280;35512;56.312;101.728;2023-04-28T03:05:11;95961.81;;;1.41;87.88
45129;BME280;35512;56.312;101.728;2023-04-28T03:07:40;95958.84;;;1.51;87.70
45129;BME280;35512;56.312;101.728;2023-04-28T03:10:09;95956.50;;;1.59;87.80
45129;BME280;35512;56.312;101.728;2023-04-28T03:12:39;95950.69;;;1.57;87.51
45129;BME280;35512;56.312;101.728;2023-04-28T03:15:08;95965.13;;;1.56;87.19
45129;BME280;35512;56.312;101.728;2023-04-28T03:17:41;95956.66;;;1.54;87.54
45129;BME280;35512;56.312;101.728;2023-04-28T03:20:11;95954.63;;;1.50;87.36
45129;BME280;35512;56.312;101.728;2023-04-28T03:22:40;95953.84;;;1.41;86.80
45129;BME280;35512;56.312;101.728;2023-04-28T03:25:09;95957.78;;;1.35;86.90
45129;BME280;35512;56.312;101.728;2023-04-28T03:27:47;95949.31;;;1.24;87.05
45129;BME280;35512;56.312;101.728;2023-04-28T03:30:15;95958.72;;;1.22;87.03
45129;BME280;35512;56.312;101.728;2023-04-28T03:32:46;95957.91;;;1.12;87.59
45129;BME280;35512;56.312;101.728;2023-04-28T03:35:15;95950.72;;;1.13;87.52
45129;BME280;35512;56.312;101.728;2023-04-28T03:37:44;95952.13;;;1.19;87.47
45129;BME280;35512;56.312;101.728;2023-04-28T03:40:13;95948.06;;;1.22;87.61
45129;BME280;35512;56.312;101.728;2023-04-28T03:43:00;95947.41;;;1.33;88.07
45129;BME280;35512;56.312;101.728;2023-04-28T03:45:39;95939.28;;;1.47;88.13
45129;BME280;35512;56.312;101.728;2023-04-28T03:48:09;95943.50;;;1.57;88.58
45129;BME280;35512;56.312;101.728;2023-04-28T03:50:38;95934.09;;;1.60;88.62
45129;BME280;35512;56.312;101.728;2023-04-28T03:53:08;95941.44;;;1.63;88.65
45129;BME280;35512;56.312;101.728;2023-04-28T03:55:37;95930.50;;;1.64;88.52
45129;BME280;35512;56.312;101.728;2023-04-28T03:58:07;95926.88;;;1.69;88.24
45129;BME280;35512;56.312;101.728;2023-04-28T04:00:36;95931.09;;;1.70;88.35
45129;BME280;35512;56.312;101.728;2023-04-28T04:03:06;95925.44;;;1.72;88.49
45129;BME280;35512;56.312;101.728;2023-04-28T04:05:35;95927.03;;;1.81;88.66
45129;BME280;35512;56.312;101.728;2023-04-28T04:08:04;95919.00;;;1.90;88.61
45129;BME280;35512;56.312;101.728;2023-04-28T04:10:34;95915.38;;;1.95;88.48
45129;BME280;35512;56.312;101.728;2023-04-28T04:13:04;95916.50;;;1.94;88.63
45129;BME280;35512;56.312;101.728;2023-04-28T04:15:33;95917.25;;;1.94;88.66
45129;BME280;35512;56.312;101.728;2023-04-28T04:18:03;95918.47;;;2.06;88.74
45129;BME280;35512;56.312;101.728;2023-04-28T04:20:52;95915.81;;;2.06;88.57
45129;BME280;35512;56.312;101.728;2023-04-28T04:23:23;95908.28;;;2.08;88.81
45129;BME280;35512;56.312;101.728;2023-04-28T04:25:53;95903.25;;;2.15;88.83
45129;BME280;35512;56.312;101.728;2023-04-28T04:28:22;95909.34;;;2.15;88.66
45129;BME280;35512;56.312;101.728;2023-04-28T04:30:51;95902.47;;;2.14;88.68
45129;BME280;35512;56.312;101.728;2023-04-28T04:33:20;95898.41;;;2.08;88.48
45129;BME280;35512;56.312;101.728;2023-04-28T04:35:49;95900.16;;;2.04;88.54
45129;BME280;35512;56.312;101.728;2023-04-28T04:38:18;95894.06;;;2.03;88.64
45129;BME280;35512;56.312;101.728;2023-04-28T04:40:48;95890.41;;;2.08;88.77
45129;BME280;35512;56.312;101.728;2023-04-28T04:43:17;95886.81;;;2.13;89.00
45129;BME280;35512;56.312;101.728;2023-04-28T04:45:49;95895.91;;;2.03;88.59
45129;BME280;35512;56.312;101.728;2023-04-28T04:48:18;95887.63;;;2.05;89.21
45129;BME280;35512;56.312;101.728;2023-04-28T04:50:47;95877.56;;;2.10;89.49
45129;BME280;35512;56.312;101.728;2023-04-28T04:53:16;95881.00;;;2.11;89.30
45129;BME280;35512;56.312;101.728;2023-04-28T04:55:45;95884.59;;;2.15;89.33
45129;BME280;35512;56.312;101.728;2023-04-28T04:58:15;95880.34;;;2.23;89.23
45129;BME280;35512;56.312;101.728;2023-04-28T05:01:02;95875.34;;;2.21;89.45
45129;BME280;35512;56.312;101.728;2023-04-28T05:03:32;95879.84;;;2.29;89.16
45129;BME280;35512;56.312;101.728;2023-04-28T05:06:02;95880.00;;;2.24;88.79
45129;BME280;35512;56.312;101.728;2023-04-28T05:08:46;95880.03;;;2.15;88.78
45129;BME280;35512;56.312;101.728;2023-04-28T05:11:15;95876.19;;;2.04;88.61
45129;BME280;35512;56.312;101.728;2023-04-28T05:13:46;95881.41;;;1.92;88.35
45129;BME280;35512;56.312;101.728;2023-04-28T05:16:15;95880.19;;;1.80;88.15
45129;BME280;35512;56.312;101.728;2023-04-28T05:19:04;95876.28;;;1.78;88.97
45129;BME280;35512;56.312;101.728;2023-04-28T05:21:33;95882.38;;;1.87;88.88
45129;BME280;35512;56.312;101.728;2023-04-28T05:24:02;95880.75;;;1.95;89.47
45129;BME280;35512;56.312;101.728;2023-04-28T05:26:31;95868.06;;;2.00;89.43
45129;BME280;35512;56.312;101.728;2023-04-28T05:29:05;95875.84;;;2.14;89.48
45129;BME280;35512;56.312;101.728;2023-04-28T05:31:34;95873.84;;;2.32;89.80
45129;BME280;35512;56.312;101.728;2023-04-28T05:34:03;95875.00;;;2.52;89.89
45129;BME280;35512;56.312;101.728;2023-04-28T05:36:32;95867.38;;;2.42;89.75
45129;BME280;35512;56.312;101.728;2023-04-28T05:39:01;95861.94;;;2.30;88.68
45129;BME280;35512;56.312;101.728;2023-04-28T05:41:30;95868.38;;;2.29;89.18
45129;BME280;35512;56.312;101.728;2023-04-28T05:43:59;95858.03;;;2.27;89.45
45129;BME280;35512;56.312;101.728;2023-04-28T05:46:29;95863.84;;;2.29;89.52
45129;BME280;35512;56.312;101.728;2023-04-28T05:49:00;95867.38;;;2.12;89.30
45129;BME280;35512;56.312;101.728;2023-04-28T05:51:33;95855.69;;;1.96;89.20
45129;BME280;35512;56.312;101.728;2023-04-28T05:54:02;95859.13;;;1.96;89.04
45129;BME280;35512;56.312;101.728;2023-04-28T05:56:36;95858.94;;;2.01;89.94
45129;BME280;35512;56.312;101.728;2023-04-28T05:59:05;95855.97;;;2.03;89.85
45129;BME280;35512;56.312;101.728;2023-04-28T06:01:36;95854.84;;;2.13;89.87
45129;BME280;35512;56.312;101.728;2023-04-28T06:04:07;95854.97;;;2.16;90.25
45129;BME280;35512;56.312;101.728;2023-04-28T06:06:36;95852.38;;;2.29;90.35
45129;BME280;35512;56.312;101.728;2023-04-28T06:09:05;95842.03;;;2.36;90.31
45129;BME280;35512;56.312;101.728;2023-04-28T06:11:34;95838.63;;;2.48;90.02
45129;BME280;35512;56.312;101.728;2023-04-28T06:14:03;95839.03;;;2.59;90.41
45129;BME280;35512;56.312;101.728;2023-04-28T06:16:32;95830.09;;;2.63;90.57
45129;BME280;35512;56.312;101.728;2023-04-28T06:19:02;95832.94;;;2.58;90.42
45129;BME280;35512;56.312;101.728;2023-04-28T06:21:31;95833.44;;;2.51;90.16
45129;BME280;35512;56.312;101.728;2023-04-28T06:24:01;95847.09;;;2.50;89.97
45129;BME280;35512;56.312;101.728;2023-04-28T06:26:30;95841.03;;;2.41;89.78
45129;BME280;35512;56.312;101.728;2023-04-28T06:29:00;95847.03;;;2.38;89.91
45129;BME280;35512;56.312;101.728;2023-04-28T06:31:30;95845.78;;;2.35;90.12
45129;BME280;35512;56.312;101.728;2023-04-28T06:33:59;95838.53;;;2.44;90.04
45129;BME280;35512;56.312;101.728;2023-04-28T06:36:28;95843.47;;;2.54;90.58
45129;BME280;35512;56.312;101.728;2023-04-28T06:38:57;95827.59;;;2.58;90.50
45129;BME280;35512;56.312;101.728;2023-04-28T06:41:26;95840.53;;;2.68;90.58
45129;BME280;35512;56.312;101.728;2023-04-28T06:43:58;95842.06;;;2.78;90.76
45129;BME280;35512;56.312;101.728;2023-04-28T06:46:29;95832.72;;;2.84;90.86
45129;BME280;35512;56.312;101.728;2023-04-28T06:48:59;95844.50;;;2.83;90.56
45129;BME280;35512;56.312;101.728;2023-04-28T06:51:28;95853.16;;;2.80;90.32
45129;BME280;35512;56.312;101.728;2023-04-28T06:53:57;95846.25;;;2.79;90.20
45129;BME280;35512;56.312;101.728;2023-04-28T06:56:26;95845.16;;;2.80;90.60
45129;BME280;35512;56.312;101.728;2023-04-28T06:58:56;95844.72;;;2.78;90.42
45129;BME280;35512;56.312;101.728;2023-04-28T07:01:26;95842.44;;;2.68;90.21
45129;BME280;35512;56.312;101.728;2023-04-28T07:03:56;95839.03;;;2.59;90.18
45129;BME280;35512;56.312;101.728;2023-04-28T07:06:25;95844.88;;;2.52;89.85
45129;BME280;35512;56.312;101.728;2023-04-28T07:08:55;95842.03;;;2.36;89.52
45129;BME280;35512;56.312;101.728;2023-04-28T07:11:23;95843.53;;;2.16;88.73
45129;BME280;35512;56.312;101.728;2023-04-28T07:13:52;95836.78;;;2.18;89.30
45129;BME280;35512;56.312;101.728;2023-04-28T07:16:21;95842.13;;;2.40;89.71
45129;BME280;35512;56.312;101.728;2023-04-28T07:18:50;95834.44;;;2.68;90.44
45129;BME280;35512;56.312;101.728;2023-04-28T07:21:19;95833.31;;;2.90;90.94
45129;BME280;35512;56.312;101.728;2023-04-28T07:23:49;95831.31;;;2.87;90.83
45129;BME280;35512;56.312;101.728;2023-04-28T07:26:17;95832.13;;;3.00;91.03
45129;BME280;35512;56.312;101.728;2023-04-28T07:28:46;95828.25;;;2.97;90.73
45129;BME280;35512;56.312;101.728;2023-04-28T07:31:15;95837.88;;;2.90;90.07
45129;BME280;35512;56.312;101.728;2023-04-28T07:33:44;95834.22;;;2.94;90.92
45129;BME280;35512;56.312;101.728;2023-04-28T07:36:13;95833.34;;;3.02;91.00
45129;BME280;35512;56.312;101.728;2023-04-28T07:38:42;95835.00;;;2.95;90.75
45129;BME280;35512;56.312;101.728;2023-04-28T07:41:12;95830.19;;;2.88;90.81
45129;BME280;35512;56.312;101.728;2023-04-28T07:43:41;95824.91;;;2.79;90.39
45129;BME280;35512;56.312;101.728;2023-04-28T07:46:11;95831.25;;;2.75;90.80
45129;BME280;35512;56.312;101.728;2023-04-28T07:48:40;95833.72;;;2.80;90.60
45129;BME280;35512;56.312;101.728;2023-04-28T07:51:09;95834.09;;;2.91;90.87
45129;BME280;35512;56.312;101.728;2023-04-28T07:53:38;95831.56;;;2.94;91.04
45129;BME280;35512;56.312;101.728;2023-04-28T07:56:08;95824.41;;;2.86;91.05
45129;BME280;35512;56.312;101.728;2023-04-28T07:58:37;95826.16;;;2.82;90.68
45129;BME280;35512;56.312;101.728;2023-04-28T08:01:07;95817.84;;;2.83;90.72
45129;BME280;35512;56.312;101.728;2023-04-28T08:03:36;95827.91;;;2.99;91.20
45129;BME280;35512;56.312;101.728;2023-04-28T08:06:06;95819.78;;;2.95;91.06
45129;BME280;35512;56.312;101.728;2023-04-28T08:08:35;95819.13;;;2.98;90.96
45129;BME280;35512;56.312;101.728;2023-04-28T08:11:04;95818.63;;;2.84;90.63
45129;BME280;35512;56.312;101.728;2023-04-28T08:13:33;95818.28;;;2.85;90.99
45129;BME280;35512;56.312;101.728;2023-04-28T08:16:02;95815.34;;;2.99;91.19
45129;BME280;35512;56.312;101.728;2023-04-28T08:18:31;95820.50;;;3.04;91.34
45129;BME280;35512;56.312;101.728;2023-04-28T08:21:05;95814.72;;;3.15;91.17
45129;BME280;35512;56.312;101.728;2023-04-28T08:23:33;95813.97;;;3.14;91.20
45129;BME280;35512;56.312;101.728;2023-04-28T08:26:03;95805.16;;;3.01;90.63
45129;BME280;35512;56.312;101.728;2023-04-28T08:28:32;95811.69;;;3.04;90.63
45129;BME280;35512;56.312;101.728;2023-04-28T08:31:01;95814.16;;;3.09;90.98
45129;BME280;35512;56.312;101.728;2023-04-28T08:33:32;95809.63;;;3.10;90.83
45129;BME280;35512;56.312;101.728;2023-04-28T08:36:02;95813.78;;;2.98;90.69
45129;BME280;35512;56.312;101.728;2023-04-28T08:38:31;95816.53;;;2.90;91.02
45129;BME280;35512;56.312;101.728;2023-04-28T08:41:03;95809.97;;;2.87;90.95
45129;BME280;35512;56.312;101.728;2023-04-28T08:43:34;95820.44;;;2.92;91.08
45129;BME280;35512;56.312;101.728;2023-04-28T08:46:07;95812.53;;;2.96;90.87
45129;BME280;35512;56.312;101.728;2023-04-28T08:48:39;95812.34;;;3.01;91.29
45129;BME280;35512;56.312;101.728;2023-04-28T08:51:08;95816.00;;;2.96;91.16
45129;BME280;35512;56.312;101.728;2023-04-28T08:53:43;95813.22;;;2.93;91.13
45129;BME280;35512;56.312;101.728;2023-04-28T08:56:33;95809.25;;;2.99;91.22
45129;BME280;35512;56.312;101.728;2023-04-28T08:59:05;95817.88;;;2.96;91.22
45129;BME280;35512;56.312;101.728;2023-04-28T09:01:34;95823.09;;;2.92;90.83
45129;BME280;35512;56.312;101.728;2023-04-28T09:04:04;95819.97;;;2.90;91.09
45129;BME280;35512;56.312;101.728;2023-04-28T09:06:35;95816.78;;;2.97;91.32
45129;BME280;35512;56.312;101.728;2023-04-28T09:09:37;95811.59;;;3.00;91.09
45129;BME280;35512;56.312;101.728;2023-04-28T09:12:06;95807.59;;;3.07;91.39
45129;BME280;35512;56.312;101.728;2023-04-28T09:14:37;95809.03;;;3.04;91.13
45129;BME280;35512;56.312;101.728;2023-04-28T09:17:11;95814.97;;;3.10;91.36
45129;BME280;35512;56.312;101.728;2023-04-28T09:19:43;95809.94;;;3.08;91.44
45129;BME280;35512;56.312;101.728;2023-04-28T09:22:12;95809.28;;;3.11;91.28
45129;BME280;35512;56.312;101.728;2023-04-28T09:24:54;95804.28;;;3.10;91.23
45129;BME280;35512;56.312;101.728;2023-04-28T09:27:27;95809.50;;;3.06;91.19
45129;BME280;35512;56.312;101.728;2023-04-28T09:29:56;95795.91;;;2.99;90.87
45129;BME280;35512;56.312;101.728;2023-04-28T09:32:25;95794.16;;;3.03;91.05
45129;BME280;35512;56.312;101.728;2023-04-28T09:34:56;95800.38;;;3.07;90.93
45129;BME280;35512;56.312;101.728;2023-04-28T09:37:26;95804.38;;;3.13;91.21
45129;BME280;35512;56.312;101.728;2023-04-28T09:40:06;95802.19;;;3.15;91.45
45129;BME280;35512;56.312;101.728;2023-04-28T09:42:39;95811.53;;;3.21;91.48
45129;BME280;35512;56.312;101.728;2023-04-28T09:45:13;95816.22;;;3.25;91.35
45129;BME280;35512;56.312;101.728;2023-04-28T09:47:44;95808.84;;;3.21;91.42
45129;BME280;35512;56.312;101.728;2023-04-28T09:50:15;95805.75;;;3.19;91.32
45129;BME280;35512;56.312;101.728;2023-04-28T09:52:56;95807.97;;;3.17;91.06
45129;BME280;35512;56.312;101.728;2023-04-28T09:55:26;95803.28;;;3.14;91.17
45129;BME280;35512;56.312;101.728;2023-04-28T09:57:57;95808.28;;;3.16;91.12
45129;BME280;35512;56.312;101.728;2023-04-28T10:00:29;95803.63;;;3.13;91.21
45129;BME280;35512;56.312;101.728;2023-04-28T10:03:01;95804.28;;;3.10;91.23
45129;BME280;35512;56.312;101.728;2023-04-28T10:05:31;95800.06;;;3.09;91.34
45129;BME280;35512;56.312;101.728;2023-04-28T10:08:01;95799.72;;;3.10;91.03
45129;BME280;35512;56.312;101.728;2023-04-28T10:10:31;95801.47;;;3.06;90.74
45129;BME280;35512;56.312;101.728;2023-04-28T10:13:01;95807.03;;;3.01;91.07
45129;BME280;35512;56.312;101.728;2023-04-28T10:15:31;95803.44;;;2.97;90.99
45129;BME280;35512;56.312;101.728;2023-04-28T10:18:02;95799.88;;;2.93;90.63
45129;BME280;35512;56.312;101.728;2023-04-28T10:20:33;95812.53;;;2.96;91.23
45129;BME280;35512;56.312;101.728;2023-04-28T10:26:03;95807.81;;;3.01;91.22
45129;BME280;35512;56.312;101.728;2023-04-28T10:28:47;95804.34;;;3.01;91.24
45129;BME280;35512;56.312;101.728;2023-04-28T10:31:18;95812.69;;;2.99;91.32
45129;BME280;35512;56.312;101.728;2023-04-28T10:33:50;95812.69;;;2.99;91.42
45129;BME280;35512;56.312;101.728;2023-04-28T10:36:51;95807.22;;;2.96;91.31
45129;BME280;35512;56.312;101.728;2023-04-28T10:39:24;95808.00;;;2.96;91.28
45129;BME280;35512;56.312;101.728;2023-04-28T10:41:53;95804.44;;;2.92;91.21
45129;BME280;35512;56.312;101.728;2023-04-28T10:47:08;95803.63;;;2.92;91.53
45129;BME280;35512;56.312;101.728;2023-04-28T10:55:33;95810.69;;;2.96;91.55
45129;BME280;35512;56.312;101.728;2023-04-28T11:00:45;95806.91;;;2.97;91.86
45129;BME280;35512;56.312;101.728;2023-04-28T11:08:58;95798.78;;;2.94;91.82
45129;BME280;35512;56.312;101.728;2023-04-28T11:11:28;95802.88;;;2.91;91.77
45129;BME280;35512;56.312;101.728;2023-04-28T11:22:01;95797.63;;;2.82;91.66
45129;BME280;35512;56.312;101.728;2023-04-28T11:24:30;95794.28;;;2.85;91.86
45129;BME280;35512;56.312;101.728;2023-04-28T11:26:59;95794.28;;;2.85;91.75
45129;BME280;35512;56.312;101.728;2023-04-28T11:29:37;95794.44;;;2.89;91.83
45129;BME280;35512;56.312;101.728;2023-04-28T11:32:08;95796.44;;;2.92;91.80
45129;BME280;35512;56.312;101.728;2023-04-28T11:34:37;95791.53;;;2.94;92.01
45129;BME280;35512;56.312;101.728;2023-04-28T11:37:06;95797.34;;;2.96;92.10
45129;BME280;35512;56.312;101.728;2023-04-28T11:39:36;95791.22;;;2.96;92.03
45129;BME280;35512;56.312;101.728;2023-04-28T11:42:11;95786.22;;;2.94;92.17
45129;BME280;35512;56.312;101.728;2023-04-28T11:44:40;95785.44;;;2.94;91.79
45129;BME280;35512;56.312;101.728;2023-04-28T11:47:09;95785.31;;;2.90;91.85
45129;BME280;35512;56.312;101.728;2023-04-28T11:49:42;95783.31;;;2.87;91.76
45129;BME280;35512;56.312;101.728;2023-04-28T11:52:12;95782.84;;;2.85;91.68
45129;BME280;35512;56.312;101.728;2023-04-28T11:54:41;95789.28;;;2.84;91.84
45129;BME280;35512;56.312;101.728;2023-04-28T11:57:18;95784.06;;;2.87;91.96
45129;BME280;35512;56.312;101.728;2023-04-28T11:59:49;95781.41;;;2.87;91.73
45129;BME280;35512;56.312;101.728;2023-04-28T12:02:27;95786.72;;;2.87;91.97
45129;BME280;35512;56.312;101.728;2023-04-28T12:05:05;95788.31;;;2.88;91.97
45129;BME280;35512;56.312;101.728;2023-04-28T12:07:41;95787.00;;;2.95;92.03
45129;BME280;35512;56.312;101.728;2023-04-28T12:10:13;95798.78;;;2.94;92.01
45129;BME280;35512;56.312;101.728;2023-04-28T12:12:45;95799.44;;;2.91;91.97
45129;BME280;35512;56.312;101.728;2023-04-28T12:15:21;95796.97;;;2.85;91.81
45129;BME280;35512;56.312;101.728;2023-04-28T12:17:52;95790.41;;;2.83;91.94
45129;BME280;35512;56.312;101.728;2023-04-28T12:20:35;95788.16;;;2.85;91.98
45129;BME280;35512;56.312;101.728;2023-04-28T12:23:05;95784.88;;;2.88;92.01
45129;BME280;35512;56.312;101.728;2023-04-28T12:25:45;95787.97;;;2.90;92.37
45129;BME280;35512;56.312;101.728;2023-04-28T12:28:15;95793.88;;;2.96;92.00
45129;BME280;35512;56.312;101.728;2023-04-28T12:30:44;95794.22;;;2.94;92.33
45129;BME280;35512;56.312;101.728;2023-04-28T12:33:26;95790.31;;;2.92;91.92
45129;BME280;35512;56.312;101.728;2023-04-28T12:35:56;95799.53;;;2.94;91.97
45129;BME280;35512;56.312;101.728;2023-04-28T12:38:26;95790.78;;;2.94;92.30
45129;BME280;35512;56.312;101.728;2023-04-28T12:40:56;95793.88;;;2.96;91.96
45129;BME280;35512;56.312;101.728;2023-04-28T12:43:25;95796.78;;;2.91;91.92
45129;BME280;35512;56.312;101.728;2023-04-28T12:45:56;95795.19;;;2.90;91.93
45129;BME280;35512;56.312;101.728;2023-04-28T12:48:26;95796.78;;;2.91;91.94
45129;BME280;35512;56.312;101.728;2023-04-28T12:50:55;95789.53;;;2.91;92.07
45129;BME280;35512;56.312;101.728;2023-04-28T12:53:23;95791.44;;;2.91;92.27
45129;BME280;35512;56.312;101.728;2023-04-28T12:55:53;95792.06;;;2.87;92.22
45129;BME280;35512;56.312;101.728;2023-04-28T12:58:22;95784.16;;;2.79;92.12
45129;BME280;35512;56.312;101.728;2023-04-28T13:00:51;95801.06;;;2.83;91.95
45129;BME280;35512;56.312;101.728;2023-04-28T13:03:21;95797.63;;;2.82;92.09
45129;BME280;35512;56.312;101.728;2023-04-28T13:05:50;95793.06;;;2.83;92.28
45129;BME280;35512;56.312;101.728;2023-04-28T13:08:19;95792.41;;;2.86;92.39
45129;BME280;35512;56.312;101.728;2023-04-28T13:10:48;95778.81;;;2.79;92.23
45129;BME280;35512;56.312;101.728;2023-04-28T13:13:18;95796.09;;;2.94;92.51
45129;BME280;35512;56.312;101.728;2023-04-28T13:15:47;95799.09;;;2.92;92.32
45129;BME280;35512;56.312;101.728;2023-04-28T13:18:16;95789.88;;;2.90;92.06
45129;BME280;35512;56.312;101.728;2023-04-28T13:20:45;95795.97;;;2.90;92.05
45129;BME280;35512;56.312;101.728;2023-04-28T13:23:14;95796.78;;;2.91;92.17
45129;BME280;35512;56.312;101.728;2023-04-28T13:25:43;95793.44;;;2.94;92.04
45129;BME280;35512;56.312;101.728;2023-04-28T13:28:12;95790.44;;;2.95;92.34
45129;BME280;35512;56.312;101.728;2023-04-28T13:30:41;95791.22;;;2.96;92.21
45129;BME280;35512;56.312;101.728;2023-04-28T13:33:10;95795.34;;;2.93;92.06
45129;BME280;35512;56.312;101.728;2023-04-28T13:35:39;95791.88;;;2.93;92.35